Percival, Iowa
Current Conditions -  °F | °C
As of 4:15 AM on Friday 31 Oct 2014 (Local Time) from KAFK Reporting Station
Broken Clouds Broken Clouds  
Wind Chill: 21°   Ceiling: 2600
Heat Index: 33°   Visibility: 10mi
Dew Point: 20°   Wind: 21mph
Humidity: 60%   Direction: 30°NNE
Pressure: 30.44"   Gusts: 26mph
Location:  40.75°N, 95.81°W
Report Text: KAFK 310915Z AUTO 03018G23KT 10SM BKN026 00/M06 A3044 RMK AO2 T00041065
Loading
Personal Weather Stations






























Interactive Weather Map
Tropical Storm Tracking
New forecast layout! Learn more

10-Day Weather Forecast

Advertisements
Track Severe Weather on mobile